createdAt,value
2018-07-06T00:00:21.405Z,24.52
2018-07-06T00:03:01.564Z,24.65
2018-07-06T00:05:41.814Z,24.80
2018-07-06T00:08:22.282Z,24.88
2018-07-06T00:11:02.609Z,24.95
2018-07-06T00:13:42.898Z,25.02
2018-07-06T00:16:23.167Z,25.04
2018-07-06T00:19:03.525Z,25.11
2018-07-06T00:21:43.569Z,25.17
2018-07-06T00:24:23.929Z,25.12
2018-07-06T00:27:04.087Z,25.11
2018-07-06T00:29:44.243Z,25.04
2018-07-06T00:32:24.497Z,25.02
2018-07-06T00:35:04.755Z,25.00
2018-07-06T00:37:44.909Z,24.88
2018-07-06T00:40:25.058Z,24.88
2018-07-06T00:43:05.323Z,24.73
2018-07-06T00:45:45.683Z,24.52
2018-07-06T00:48:25.837Z,24.57
2018-07-06T00:51:06.091Z,24.43
2018-07-06T00:53:46.558Z,24.56
2018-07-06T00:56:26.917Z,24.55
2018-07-06T00:59:07.277Z,24.44
2018-07-06T01:01:47.567Z,24.22
2018-07-06T01:04:27.704Z,24.29
2018-07-06T01:07:07.955Z,24.07
2018-07-06T01:09:48.306Z,24.00
2018-07-06T01:12:33.524Z,23.89
2018-07-06T01:15:18.857Z,24.01
2018-07-06T01:17:58.909Z,24.01
2018-07-06T01:20:39.372Z,24.08
2018-07-06T01:23:19.527Z,24.07
2018-07-06T01:25:59.992Z,24.12
2018-07-06T01:28:40.047Z,24.15
2018-07-06T01:31:20.105Z,24.20
2018-07-06T01:34:00.149Z,24.17
2018-07-06T01:36:41.329Z,24.21
2018-07-06T01:39:21.584Z,24.18
2018-07-06T01:42:01.835Z,23.43
2018-07-06T01:44:42.109Z,22.91
2018-07-06T01:47:22.462Z,22.73
2018-07-06T01:50:02.615Z,22.32
2018-07-06T01:52:42.973Z,22.16
2018-07-06T01:55:23.333Z,22.36
2018-07-06T01:58:03.797Z,23.04
2018-07-06T02:00:43.854Z,23.21
2018-07-06T02:03:24.105Z,23.53
2018-07-06T02:06:04.261Z,23.42
2018-07-06T02:08:44.621Z,23.25
2018-07-06T02:11:24.674Z,23.42
2018-07-06T02:14:04.833Z,23.19
2018-07-06T02:16:44.984Z,23.35
2018-07-06T02:19:25.137Z,23.54
2018-07-06T02:22:05.397Z,23.50
2018-07-06T02:24:45.858Z,23.35
2018-07-06T02:27:26.159Z,23.20
2018-07-06T02:30:06.274Z,23.23
2018-07-06T02:32:46.845Z,23.35
2018-07-06T02:35:26.892Z,23.50
2018-07-06T02:38:07.149Z,23.51
2018-07-06T02:40:47.302Z,23.38
2018-07-06T02:43:27.352Z,23.39
2018-07-06T02:46:07.509Z,23.37
2018-07-06T02:48:47.971Z,23.19
2018-07-06T02:51:28.229Z,23.12
2018-07-06T02:54:08.593Z,23.15
2018-07-06T02:56:48.668Z,23.12
2018-07-06T02:59:28.797Z,23.10
2018-07-06T03:02:08.955Z,22.90
2018-07-06T03:04:49.214Z,22.92
2018-07-06T03:07:29.482Z,22.90
2018-07-06T03:10:09.841Z,22.87
2018-07-06T03:12:49.878Z,22.72
2018-07-06T03:15:30.036Z,22.54
2018-07-06T03:18:10.189Z,22.50
2018-07-06T03:20:50.444Z,22.27
2018-07-06T03:23:30.544Z,22.17
2018-07-06T03:26:10.757Z,22.20
2018-07-06T03:28:51.219Z,22.20
2018-07-06T03:31:31.170Z,22.07
2018-07-06T03:34:11.432Z,22.31
2018-07-06T03:36:51.684Z,22.25
2018-07-06T03:39:31.943Z,22.06
2018-07-06T03:42:12.208Z,22.12
2018-07-06T03:44:52.371Z,22.04
2018-07-06T03:47:32.475Z,21.91
2018-07-06T03:50:12.665Z,22.03
2018-07-06T03:52:52.779Z,21.97
2018-07-06T03:55:32.975Z,21.88
2018-07-06T03:58:13.234Z,21.90
2018-07-06T04:00:53.601Z,21.77
2018-07-06T04:03:33.644Z,21.77
2018-07-06T04:06:14.004Z,21.78
2018-07-06T04:08:54.057Z,21.73
2018-07-06T04:11:34.102Z,21.67
2018-07-06T04:14:14.482Z,21.71
2018-07-06T04:16:54.829Z,21.74
2018-07-06T04:19:35.103Z,21.77
2018-07-06T04:22:15.447Z,21.99
2018-07-06T04:24:55.600Z,21.98
2018-07-06T04:27:35.753Z,21.76
2018-07-06T04:30:16.022Z,21.58
2018-07-06T04:32:56.062Z,21.57
2018-07-06T04:35:36.327Z,21.73
2018-07-06T04:38:16.274Z,21.64
2018-07-06T04:40:56.533Z,21.75
2018-07-06T04:43:36.583Z,21.78
2018-07-06T04:46:16.842Z,21.78
2018-07-06T04:48:56.836Z,21.81
2018-07-06T04:51:37.052Z,21.81
2018-07-06T04:54:17.213Z,21.81
2018-07-06T04:56:57.463Z,22.03
2018-07-06T04:59:37.925Z,21.72
2018-07-06T05:02:18.089Z,22.05
2018-07-06T05:04:58.249Z,22.15
2018-07-06T05:07:38.769Z,22.09
2018-07-06T05:10:18.855Z,22.01
2018-07-06T05:12:59.215Z,22.23
2018-07-06T05:15:39.375Z,22.13
2018-07-06T05:18:19.730Z,21.73
2018-07-06T05:20:59.977Z,22.17
2018-07-06T05:23:40.243Z,22.53
2018-07-06T05:26:20.595Z,22.42
2018-07-06T05:29:00.551Z,22.78
2018-07-06T05:31:40.714Z,22.86
2018-07-06T05:34:20.972Z,22.83
2018-07-06T05:37:01.225Z,22.87
2018-07-06T05:39:41.174Z,22.92
2018-07-06T05:42:21.235Z,23.21
2018-07-06T05:45:01.383Z,23.90
2018-07-06T05:47:41.741Z,23.38
2018-07-06T05:50:22.104Z,23.96
2018-07-06T05:53:02.464Z,23.95
2018-07-06T05:55:42.344Z,24.57
2018-07-06T05:58:22.669Z,26.77
2018-07-06T06:01:02.826Z,28.82
2018-07-06T06:03:43.169Z,29.37
2018-07-06T06:06:23.035Z,30.23
2018-07-06T06:08:51.005Z,28.48
2018-07-06T06:11:20.304Z,29.32
2018-07-06T06:13:49.808Z,27.38
2018-07-06T06:16:19.450Z,27.53
2018-07-06T06:18:48.740Z,27.36
2018-07-06T06:21:18.125Z,28.21
2018-07-06T06:23:47.510Z,28.14
2018-07-06T06:26:18.213Z,28.27
2018-07-06T06:28:47.334Z,28.53
2018-07-06T06:31:16.527Z,28.35
2018-07-06T06:33:46.042Z,28.70
2018-07-06T06:36:15.122Z,28.77
2018-07-06T06:38:44.371Z,29.61
2018-07-06T06:41:13.615Z,29.41
2018-07-06T06:43:42.767Z,30.17
2018-07-06T06:46:11.994Z,30.20
2018-07-06T06:48:41.433Z,30.64
2018-07-06T06:51:11.077Z,31.04
2018-07-06T06:53:41.002Z,30.42
2018-07-06T06:56:10.595Z,31.06
2018-07-06T06:58:40.348Z,31.77
2018-07-06T07:01:09.541Z,31.35
2018-07-06T07:03:38.866Z,29.41
2018-07-06T07:06:08.090Z,29.19
2018-07-06T07:08:38.185Z,29.01
2018-07-06T07:11:07.720Z,28.72
2018-07-06T07:13:37.109Z,28.97
2018-07-06T07:16:06.301Z,29.16
2018-07-06T07:18:35.446Z,28.26
2018-07-06T07:21:04.607Z,27.01
2018-07-06T07:23:33.892Z,27.40
2018-07-06T07:26:03.103Z,27.39
2018-07-06T07:28:32.593Z,27.50
2018-07-06T07:31:01.888Z,27.84
2018-07-06T07:33:31.261Z,27.66
2018-07-06T07:36:00.720Z,28.28
2018-07-06T07:38:29.917Z,28.59
2018-07-06T07:40:59.101Z,28.66
2018-07-06T07:43:28.473Z,27.80
2018-07-06T07:45:57.694Z,28.79
2018-07-06T07:48:26.814Z,29.02
2018-07-06T07:51:07.073Z,29.27
2018-07-06T07:53:47.234Z,29.67
2018-07-06T07:56:16.627Z,29.82
2018-07-06T07:58:45.882Z,29.79
2018-07-06T08:01:15.470Z,29.48
2018-07-06T08:03:44.592Z,29.33
2018-07-06T08:06:13.833Z,29.24
2018-07-06T08:08:43.131Z,29.70
2018-07-06T08:11:12.536Z,29.17
2018-07-06T08:13:42.007Z,29.76
2018-07-06T08:16:11.039Z,29.83
2018-07-06T08:18:40.394Z,29.13
2018-07-06T08:21:09.754Z,29.57
2018-07-06T08:23:39.014Z,29.27
2018-07-06T08:26:08.255Z,29.36
2018-07-06T08:28:37.175Z,30.04
2018-07-06T08:31:06.141Z,30.32
2018-07-06T08:33:40.438Z,29.17
2018-07-06T08:37:29.462Z,30.03
2018-07-06T08:39:59.314Z,29.40
2018-07-06T08:42:29.863Z,28.97
2018-07-06T08:44:59.930Z,30.09
2018-07-06T08:47:29.312Z,30.26
2018-07-06T08:49:59.311Z,30.72
2018-07-06T08:52:28.814Z,30.95
2018-07-06T08:54:58.117Z,30.50
2018-07-06T08:57:28.785Z,30.68
2018-07-06T08:59:57.806Z,31.17
2018-07-06T09:02:27.464Z,30.71
2018-07-06T09:04:57.474Z,30.60
2018-07-06T09:07:26.938Z,30.66
2018-07-06T09:09:57.285Z,30.69
2018-07-06T09:12:26.674Z,31.12
2018-07-06T09:14:56.182Z,31.02
2018-07-06T09:17:25.685Z,31.08
2018-07-06T09:19:55.892Z,31.22
2018-07-06T09:22:24.833Z,31.24
2018-07-06T09:24:55.108Z,30.93
2018-07-06T09:27:24.091Z,31.11
2018-07-06T09:29:53.036Z,31.79
2018-07-06T09:32:22.012Z,31.38
2018-07-06T09:34:51.299Z,31.37
2018-07-06T09:37:20.617Z,31.46
2018-07-06T09:39:50.646Z,31.53
2018-07-06T09:42:20.098Z,31.48
2018-07-06T09:44:49.277Z,32.26
2018-07-06T09:47:18.526Z,32.21
2018-07-06T09:49:47.802Z,31.65
2018-07-06T09:52:17.138Z,31.76
2018-07-06T09:54:46.385Z,32.10
2018-07-06T09:57:15.519Z,32.37
2018-07-06T09:59:44.793Z,32.35
2018-07-06T10:02:14.030Z,32.00
2018-07-06T10:04:43.306Z,33.13
2018-07-06T10:07:12.539Z,33.42
2018-07-06T10:09:41.714Z,33.35
2018-07-06T10:12:12.104Z,32.94
2018-07-06T10:14:41.405Z,32.90
2018-07-06T10:17:10.637Z,33.12
2018-07-06T10:19:39.937Z,33.50
2018-07-06T10:22:09.263Z,33.95
2018-07-06T10:24:38.380Z,32.64
2018-07-06T10:27:07.742Z,32.95
2018-07-06T10:29:47.185Z,34.29
2018-07-06T10:32:24.992Z,35.85
2018-07-06T10:34:54.926Z,35.96
2018-07-06T10:37:24.883Z,36.26
2018-07-06T10:39:54.431Z,35.67
2018-07-06T10:42:23.503Z,35.30
2018-07-06T10:44:52.753Z,35.47
2018-07-06T10:47:22.326Z,34.76
2018-07-06T10:49:51.684Z,34.55
2018-07-06T10:52:20.954Z,34.70
2018-07-06T10:54:50.276Z,35.22
2018-07-06T10:57:19.646Z,34.73
2018-07-06T10:59:48.878Z,34.96
2018-07-06T11:02:18.429Z,34.05
2018-07-06T11:04:47.722Z,34.40
2018-07-06T11:07:17.058Z,34.22
2018-07-06T11:09:46.274Z,34.11
2018-07-06T11:12:15.547Z,34.46
2018-07-06T11:14:44.813Z,34.13
2018-07-06T11:17:14.129Z,34.06
2018-07-06T11:19:43.496Z,34.22
2018-07-06T11:22:12.834Z,34.31
2018-07-06T11:24:42.098Z,34.23
2018-07-06T11:27:11.324Z,34.19
2018-07-06T11:29:40.581Z,34.23
2018-07-06T11:32:09.995Z,34.43
2018-07-06T11:34:39.323Z,33.94
2018-07-06T11:37:08.727Z,34.28
2018-07-06T11:39:38.007Z,34.09
2018-07-06T11:42:07.883Z,33.84
2018-07-06T11:44:37.327Z,34.54
2018-07-06T11:47:06.770Z,34.63
2018-07-06T11:49:36.134Z,34.12
2018-07-06T11:52:05.679Z,34.32
2018-07-06T11:54:35.489Z,34.80
2018-07-06T11:57:05.304Z,34.81
2018-07-06T11:59:34.990Z,34.94
2018-07-06T12:02:04.414Z,34.84
2018-07-06T12:04:33.718Z,34.62
2018-07-06T12:07:03.194Z,34.48
2018-07-06T12:09:32.636Z,34.47
2018-07-06T12:12:01.881Z,34.07
2018-07-06T12:14:31.134Z,34.51
2018-07-06T12:17:00.498Z,35.05
2018-07-06T12:19:29.846Z,34.88
2018-07-06T12:21:59.114Z,34.80
2018-07-06T12:24:28.333Z,34.91
2018-07-06T12:26:57.518Z,35.25
2018-07-06T12:29:26.822Z,35.15
2018-07-06T12:31:56.085Z,34.82
2018-07-06T12:34:25.315Z,35.52
2018-07-06T12:36:54.478Z,34.96
2018-07-06T12:39:23.613Z,35.11
2018-07-06T12:41:53.091Z,35.02
2018-07-06T12:44:22.425Z,35.31
2018-07-06T12:46:51.664Z,34.88
2018-07-06T12:49:21.120Z,34.47
2018-07-06T12:51:50.367Z,35.03
2018-07-06T12:54:20.346Z,34.71
2018-07-06T12:56:49.595Z,35.57
2018-07-06T12:59:18.966Z,35.14
2018-07-06T13:01:48.228Z,35.72
2018-07-06T13:04:17.452Z,35.84
2018-07-06T13:06:46.714Z,35.59
2018-07-06T13:09:15.937Z,35.00
2018-07-06T13:11:45.200Z,34.67
2018-07-06T13:14:14.535Z,34.87
2018-07-06T13:16:43.782Z,34.64
2018-07-06T13:19:13.095Z,35.02
2018-07-06T13:21:42.296Z,35.32
2018-07-06T13:24:11.566Z,34.53
2018-07-06T13:26:40.733Z,35.10
2018-07-06T13:29:10.147Z,35.81
2018-07-06T13:31:39.402Z,35.90
2018-07-06T13:34:08.863Z,34.99
2018-07-06T13:36:38.134Z,34.77
2018-07-06T13:39:07.644Z,35.06
2018-07-06T13:41:37.033Z,34.93
2018-07-06T13:44:06.365Z,35.28
2018-07-06T13:46:35.677Z,34.25
2018-07-06T13:49:05.062Z,34.98
2018-07-06T13:51:34.435Z,34.78
2018-07-06T13:54:03.776Z,34.66
2018-07-06T13:56:33.018Z,34.97
2018-07-06T13:59:02.482Z,34.87
2018-07-06T14:01:32.237Z,35.42
2018-07-06T14:04:01.886Z,34.75
2018-07-06T14:06:31.262Z,34.86
2018-07-06T14:09:00.599Z,34.81
2018-07-06T14:11:29.863Z,34.89
2018-07-06T14:13:59.078Z,34.88
2018-07-06T14:16:28.511Z,36.14
2018-07-06T14:18:57.765Z,35.81
2018-07-06T14:21:27.188Z,35.61
2018-07-06T14:23:56.502Z,36.18
2018-07-06T14:26:25.785Z,36.03
2018-07-06T14:28:55.104Z,35.64
2018-07-06T14:31:24.262Z,35.73
2018-07-06T14:33:53.594Z,35.44
2018-07-06T14:36:22.742Z,35.31
2018-07-06T14:38:52.082Z,34.43
2018-07-06T14:41:21.342Z,34.60
2018-07-06T14:43:50.695Z,35.30
2018-07-06T14:46:20.045Z,34.66
2018-07-06T14:48:49.220Z,34.78
2018-07-06T14:51:18.718Z,34.34
2018-07-06T14:53:48.012Z,34.34
2018-07-06T14:56:17.271Z,34.68
2018-07-06T14:58:46.571Z,34.99
2018-07-06T15:01:15.660Z,35.42
2018-07-06T15:03:44.901Z,35.56
2018-07-06T15:06:14.258Z,35.22
2018-07-06T15:08:43.495Z,35.09
2018-07-06T15:11:13.205Z,35.25
2018-07-06T15:13:42.598Z,35.15
2018-07-06T15:16:11.958Z,34.56
2018-07-06T15:18:41.224Z,33.67
2018-07-06T15:21:10.475Z,34.10
2018-07-06T15:23:39.705Z,34.07
2018-07-06T15:26:09.064Z,34.09
2018-07-06T15:28:38.250Z,34.22
2018-07-06T15:31:07.422Z,34.42
2018-07-06T15:33:36.784Z,34.54
2018-07-06T15:36:06.115Z,34.34
2018-07-06T15:38:35.498Z,34.27
2018-07-06T15:41:04.860Z,34.12
2018-07-06T15:43:34.062Z,33.41
2018-07-06T15:46:03.507Z,33.80
2018-07-06T15:48:32.803Z,33.58
2018-07-06T15:51:02.215Z,33.41
2018-07-06T15:53:31.474Z,34.00
2018-07-06T15:56:00.818Z,34.10
2018-07-06T15:58:30.177Z,34.11
2018-07-06T16:00:59.442Z,33.98
2018-07-06T16:03:28.691Z,33.25
2018-07-06T16:05:58.022Z,33.22
2018-07-06T16:08:27.279Z,32.65
2018-07-06T16:10:56.653Z,33.16
2018-07-06T16:13:26.494Z,32.75
2018-07-06T16:15:55.744Z,32.66
2018-07-06T16:18:25.395Z,32.53
2018-07-06T16:20:54.830Z,32.38
2018-07-06T16:23:23.898Z,32.31
2018-07-06T16:25:53.142Z,32.41
2018-07-06T16:28:22.445Z,31.98
2018-07-06T16:30:51.812Z,31.95
2018-07-06T16:33:20.903Z,32.18
2018-07-06T16:35:50.125Z,31.87
2018-07-06T16:38:19.312Z,31.84
2018-07-06T16:40:48.458Z,32.05
2018-07-06T16:43:17.735Z,31.86
2018-07-06T16:45:47.050Z,31.40
2018-07-06T16:48:16.334Z,31.35
2018-07-06T16:50:45.784Z,31.27
2018-07-06T16:53:15.224Z,31.20
2018-07-06T16:55:44.561Z,31.13
2018-07-06T16:58:13.818Z,31.72
2018-07-06T17:00:42.946Z,31.92
2018-07-06T17:03:12.211Z,31.64
2018-07-06T17:05:41.439Z,31.17
2018-07-06T17:08:10.740Z,31.29
2018-07-06T17:10:40.146Z,31.36
2018-07-06T17:13:09.541Z,30.95
2018-07-06T17:15:38.845Z,30.48
2018-07-06T17:18:08.110Z,30.46
2018-07-06T17:20:37.355Z,30.55
2018-07-06T17:23:06.955Z,30.37
2018-07-06T17:25:36.278Z,30.49
2018-07-06T17:28:05.764Z,30.17
2018-07-06T17:30:35.071Z,30.50
2018-07-06T17:33:04.363Z,30.61
2018-07-06T17:35:33.664Z,30.54
2018-07-06T17:38:02.960Z,30.52
2018-07-06T17:40:32.363Z,30.56
2018-07-06T17:43:01.615Z,30.73
2018-07-06T17:45:30.864Z,30.17
2018-07-06T17:48:00.213Z,30.38
2018-07-06T17:50:29.662Z,30.44
2018-07-06T17:52:58.867Z,30.56
2018-07-06T17:55:28.262Z,30.66
2018-07-06T17:57:57.623Z,30.37
2018-07-06T18:00:26.884Z,30.56
2018-07-06T18:02:56.175Z,30.11
2018-07-06T18:05:25.529Z,30.45
2018-07-06T18:07:54.769Z,30.20
2018-07-06T18:10:24.194Z,30.53
2018-07-06T18:12:53.526Z,30.56
2018-07-06T18:15:22.923Z,30.43
2018-07-06T18:17:52.128Z,29.95
2018-07-06T18:20:21.746Z,30.19
2018-07-06T18:22:51.531Z,30.12
2018-07-06T18:25:20.918Z,30.21
2018-07-06T18:27:50.282Z,30.29
2018-07-06T18:30:19.502Z,29.66
2018-07-06T18:32:49.179Z,29.93
2018-07-06T18:35:19.016Z,30.09
2018-07-06T18:37:49.019Z,30.11
2018-07-06T18:40:18.354Z,30.08
2018-07-06T18:42:48.224Z,29.73
2018-07-06T18:45:17.682Z,29.70
2018-07-06T18:47:47.072Z,29.67
2018-07-06T18:50:16.373Z,29.58
2018-07-06T18:52:45.800Z,29.41
2018-07-06T18:55:15.175Z,29.70
2018-07-06T18:57:44.443Z,29.78
2018-07-06T19:00:13.877Z,29.75
2018-07-06T19:02:43.145Z,29.67
2018-07-06T19:05:12.491Z,29.72
2018-07-06T19:07:41.782Z,29.62
2018-07-06T19:10:11.016Z,29.04
2018-07-06T19:12:40.271Z,29.24
2018-07-06T19:15:09.430Z,29.36
2018-07-06T19:17:38.751Z,29.30
2018-07-06T19:20:07.918Z,28.91
2018-07-06T19:22:37.064Z,29.14
2018-07-06T19:25:06.214Z,29.05
2018-07-06T19:27:35.594Z,29.07
2018-07-06T19:30:04.841Z,28.93
2018-07-06T19:32:34.035Z,29.06
2018-07-06T19:35:03.323Z,28.96
2018-07-06T19:37:32.563Z,29.04
2018-07-06T19:40:01.749Z,29.05
2018-07-06T19:42:31.064Z,29.11
2018-07-06T19:45:01.765Z,29.10
2018-07-06T19:47:30.984Z,28.90
2018-07-06T19:50:00.354Z,28.91
2018-07-06T19:52:29.582Z,28.90
2018-07-06T19:54:58.943Z,28.87
2018-07-06T19:57:28.193Z,28.83
2018-07-06T19:59:57.472Z,28.68
2018-07-06T20:02:26.601Z,28.50
2018-07-06T20:04:55.840Z,28.50
2018-07-06T20:07:25.083Z,28.28
2018-07-06T20:09:54.393Z,28.25
2018-07-06T20:12:23.711Z,28.20
2018-07-06T20:14:52.996Z,28.09
2018-07-06T20:17:22.295Z,28.05
2018-07-06T20:19:51.594Z,28.16
2018-07-06T20:22:20.905Z,27.95
2018-07-06T20:24:50.123Z,28.01
2018-07-06T20:27:19.400Z,27.96
2018-07-06T20:29:48.643Z,27.95
2018-07-06T20:32:17.888Z,27.95
2018-07-06T20:34:47.310Z,27.75
2018-07-06T20:37:16.694Z,27.83
2018-07-06T20:39:45.971Z,27.78
2018-07-06T20:42:15.223Z,27.72
2018-07-06T20:44:44.585Z,27.57
2018-07-06T20:47:14.035Z,27.60
2018-07-06T20:49:43.275Z,27.50
2018-07-06T20:52:12.714Z,27.43
2018-07-06T20:54:42.316Z,27.29
2018-07-06T20:57:11.630Z,27.38
2018-07-06T20:59:40.889Z,27.20
2018-07-06T21:02:10.023Z,27.04
2018-07-06T21:04:39.391Z,26.66
2018-07-06T21:07:08.614Z,26.30
2018-07-06T21:09:37.902Z,26.52
2018-07-06T21:12:07.134Z,26.55
2018-07-06T21:14:36.290Z,26.55
2018-07-06T21:17:05.518Z,26.31
2018-07-06T21:19:34.988Z,26.13
2018-07-06T21:22:04.221Z,26.15
2018-07-06T21:24:33.466Z,26.20
2018-07-06T21:27:02.718Z,26.14
2018-07-06T21:29:32.113Z,26.16
2018-07-06T21:32:01.430Z,26.14
2018-07-06T21:34:30.786Z,26.04
2018-07-06T21:37:00.152Z,26.19
2018-07-06T21:39:29.423Z,26.25
2018-07-06T21:41:58.725Z,26.32
2018-07-06T21:44:28.023Z,26.15
2018-07-06T21:46:57.320Z,26.03
2018-07-06T21:49:26.584Z,25.88
2018-07-06T21:51:55.811Z,25.80
2018-07-06T21:54:25.078Z,25.77
2018-07-06T21:56:54.421Z,25.51
2018-07-06T21:59:23.720Z,25.18
2018-07-06T22:01:53.064Z,25.14
2018-07-06T22:04:22.285Z,25.25
2018-07-06T22:06:51.600Z,24.70
2018-07-06T22:09:20.770Z,24.35
2018-07-06T22:11:50.011Z,24.43
2018-07-06T22:14:19.397Z,24.20
2018-07-06T22:16:48.731Z,24.08
2018-07-06T22:19:17.994Z,24.21
2018-07-06T22:21:47.319Z,24.19
2018-07-06T22:24:16.578Z,24.41
2018-07-06T22:26:45.825Z,24.50
2018-07-06T22:29:15.082Z,24.65
2018-07-06T22:31:44.355Z,24.73
2018-07-06T22:34:13.614Z,24.74
2018-07-06T22:36:42.922Z,24.83
2018-07-06T22:39:12.202Z,24.81
2018-07-06T22:41:41.470Z,24.70
2018-07-06T22:44:10.706Z,24.68
2018-07-06T22:46:39.911Z,24.63
2018-07-06T22:49:09.210Z,24.54
2018-07-06T22:51:38.462Z,24.36
2018-07-06T22:54:07.743Z,24.33
2018-07-06T22:56:37.122Z,24.47
2018-07-06T22:59:06.479Z,24.59
2018-07-06T23:01:35.674Z,24.70
2018-07-06T23:04:04.922Z,24.67
2018-07-06T23:06:34.206Z,24.75
2018-07-06T23:09:04.412Z,24.80
2018-07-06T23:11:34.222Z,24.75
2018-07-06T23:14:03.467Z,24.78
2018-07-06T23:16:32.822Z,24.79
2018-07-06T23:19:02.062Z,24.76
2018-07-06T23:21:31.332Z,24.52
2018-07-06T23:24:00.566Z,24.56
2018-07-06T23:26:29.700Z,24.72
2018-07-06T23:28:58.862Z,24.77
2018-07-06T23:31:28.102Z,24.78
2018-07-06T23:33:57.243Z,24.69
2018-07-06T23:36:26.495Z,24.73
2018-07-06T23:38:55.727Z,24.57
2018-07-06T23:41:24.823Z,24.58
2018-07-06T23:43:54.059Z,24.51
2018-07-06T23:46:23.319Z,24.47
2018-07-06T23:48:52.549Z,24.56
2018-07-06T23:51:21.830Z,24.60
2018-07-06T23:53:51.137Z,24.62
2018-07-06T23:56:20.291Z,24.69
2018-07-06T23:58:49.521Z,24.58
